sensor_id;sensor_type;location;lat;lon;timestamp;temperature;humidity
35603;DHT22;21725;50.836;4.368;2022-08-14T00:01:29;26.20;62.80
35603;DHT22;21725;50.836;4.368;2022-08-14T00:04:04;26.20;62.90
35603;DHT22;21725;50.836;4.368;2022-08-14T00:06:29;26.20;62.80
35603;DHT22;21725;50.836;4.368;2022-08-14T00:09:00;26.30;63.00
35603;DHT22;21725;50.836;4.368;2022-08-14T00:11:26;26.30;62.80
35603;DHT22;21725;50.836;4.368;2022-08-14T00:13:52;26.30;62.60
35603;DHT22;21725;50.836;4.368;2022-08-14T00:16:20;26.30;62.60
35603;DHT22;21725;50.836;4.368;2022-08-14T00:18:46;26.20;62.60
35603;DHT22;21725;50.836;4.368;2022-08-14T00:21:19;26.10;62.80
35603;DHT22;21725;50.836;4.368;2022-08-14T00:23:45;26.00;63.40
35603;DHT22;21725;50.836;4.368;2022-08-14T00:26:11;25.90;62.90
35603;DHT22;21725;50.836;4.368;2022-08-14T00:28:40;25.80;63.10
35603;DHT22;21725;50.836;4.368;2022-08-14T00:31:08;25.80;63.30
35603;DHT22;21725;50.836;4.368;2022-08-14T00:33:35;25.70;63.20
35603;DHT22;21725;50.836;4.368;2022-08-14T00:36:01;25.70;63.30
35603;DHT22;21725;50.836;4.368;2022-08-14T00:38:29;25.70;63.40
35603;DHT22;21725;50.836;4.368;2022-08-14T00:40:55;25.60;63.30
35603;DHT22;21725;50.836;4.368;2022-08-14T00:43:24;25.70;63.40
35603;DHT22;21725;50.836;4.368;2022-08-14T00:45:50;25.70;63.30
35603;DHT22;21725;50.836;4.368;2022-08-14T00:48:16;25.80;63.20
35603;DHT22;21725;50.836;4.368;2022-08-14T00:50:45;25.80;63.10
35603;DHT22;21725;50.836;4.368;2022-08-14T00:53:10;25.90;63.00
35603;DHT22;21725;50.836;4.368;2022-08-14T00:55:37;25.90;62.90
35603;DHT22;21725;50.836;4.368;2022-08-14T00:58:06;25.90;62.70
35603;DHT22;21725;50.836;4.368;2022-08-14T01:00:51;25.90;62.80
35603;DHT22;21725;50.836;4.368;2022-08-14T01:03:19;26.00;62.70
35603;DHT22;21725;50.836;4.368;2022-08-14T01:05:51;26.00;62.60
35603;DHT22;21725;50.836;4.368;2022-08-14T01:08:21;26.00;62.10
35603;DHT22;21725;50.836;4.368;2022-08-14T01:10:55;26.10;62.20
35603;DHT22;21725;50.836;4.368;2022-08-14T01:13:27;26.10;62.40
35603;DHT22;21725;50.836;4.368;2022-08-14T01:15:56;26.00;62.40
35603;DHT22;21725;50.836;4.368;2022-08-14T01:18:24;26.00;62.40
35603;DHT22;21725;50.836;4.368;2022-08-14T01:21:13;26.00;62.40
35603;DHT22;21725;50.836;4.368;2022-08-14T01:23:48;26.00;62.20
35603;DHT22;21725;50.836;4.368;2022-08-14T01:26:16;26.10;61.90
35603;DHT22;21725;50.836;4.368;2022-08-14T01:28:54;26.00;61.80
35603;DHT22;21725;50.836;4.368;2022-08-14T01:31:33;26.00;61.70
35603;DHT22;21725;50.836;4.368;2022-08-14T01:34:01;26.00;61.80
35603;DHT22;21725;50.836;4.368;2022-08-14T01:36:34;25.90;61.70
35603;DHT22;21725;50.836;4.368;2022-08-14T01:39:11;25.90;61.90
35603;DHT22;21725;50.836;4.368;2022-08-14T01:41:36;25.90;62.00
35603;DHT22;21725;50.836;4.368;2022-08-14T01:44:06;25.80;62.10
35603;DHT22;21725;50.836;4.368;2022-08-14T01:46:36;25.80;62.10
35603;DHT22;21725;50.836;4.368;2022-08-14T01:49:10;25.80;61.90
35603;DHT22;21725;50.836;4.368;2022-08-14T01:51:40;25.80;62.00
35603;DHT22;21725;50.836;4.368;2022-08-14T01:54:10;25.80;62.10
35603;DHT22;21725;50.836;4.368;2022-08-14T01:56:38;25.80;62.20
35603;DHT22;21725;50.836;4.368;2022-08-14T01:59:29;25.90;62.30
35603;DHT22;21725;50.836;4.368;2022-08-14T02:02:08;25.80;62.10
35603;DHT22;21725;50.836;4.368;2022-08-14T02:04:40;25.80;62.20
35603;DHT22;21725;50.836;4.368;2022-08-14T02:07:07;25.70;62.70
35603;DHT22;21725;50.836;4.368;2022-08-14T02:09:34;25.70;62.80
35603;DHT22;21725;50.836;4.368;2022-08-14T02:12:05;25.70;62.40
35603;DHT22;21725;50.836;4.368;2022-08-14T02:14:39;25.60;62.20
35603;DHT22;21725;50.836;4.368;2022-08-14T02:17:04;25.60;62.30
35603;DHT22;21725;50.836;4.368;2022-08-14T02:19:35;25.60;62.50
35603;DHT22;21725;50.836;4.368;2022-08-14T02:22:03;25.60;62.60
35603;DHT22;21725;50.836;4.368;2022-08-14T02:24:31;25.60;62.60
35603;DHT22;21725;50.836;4.368;2022-08-14T02:26:58;25.60;62.40
35603;DHT22;21725;50.836;4.368;2022-08-14T02:29:29;25.70;61.90
35603;DHT22;21725;50.836;4.368;2022-08-14T02:31:56;25.70;62.00
35603;DHT22;21725;50.836;4.368;2022-08-14T02:34:32;25.50;62.30
35603;DHT22;21725;50.836;4.368;2022-08-14T02:37:07;25.50;62.50
35603;DHT22;21725;50.836;4.368;2022-08-14T02:39:40;25.50;62.70
35603;DHT22;21725;50.836;4.368;2022-08-14T02:42:17;25.40;62.70
35603;DHT22;21725;50.836;4.368;2022-08-14T02:44:55;25.40;62.70
35603;DHT22;21725;50.836;4.368;2022-08-14T02:47:21;25.40;62.70
35603;DHT22;21725;50.836;4.368;2022-08-14T02:49:51;25.40;62.80
35603;DHT22;21725;50.836;4.368;2022-08-14T02:52:22;25.40;62.80
35603;DHT22;21725;50.836;4.368;2022-08-14T02:54:52;25.40;62.60
35603;DHT22;21725;50.836;4.368;2022-08-14T02:57:22;25.40;62.50
35603;DHT22;21725;50.836;4.368;2022-08-14T02:59:50;25.40;62.30
35603;DHT22;21725;50.836;4.368;2022-08-14T03:02:16;25.40;62.50
35603;DHT22;21725;50.836;4.368;2022-08-14T03:04:41;25.30;62.60
35603;DHT22;21725;50.836;4.368;2022-08-14T03:07:13;25.30;63.40
35603;DHT22;21725;50.836;4.368;2022-08-14T03:09:41;25.30;63.10
35603;DHT22;21725;50.836;4.368;2022-08-14T03:12:09;25.30;63.20
35603;DHT22;21725;50.836;4.368;2022-08-14T03:14:35;25.20;63.20
35603;DHT22;21725;50.836;4.368;2022-08-14T03:17:04;25.20;63.00
35603;DHT22;21725;50.836;4.368;2022-08-14T03:19:34;25.20;62.90
35603;DHT22;21725;50.836;4.368;2022-08-14T03:22:00;25.20;63.00
35603;DHT22;21725;50.836;4.368;2022-08-14T03:24:27;25.20;63.00
35603;DHT22;21725;50.836;4.368;2022-08-14T03:26:54;25.20;63.00
35603;DHT22;21725;50.836;4.368;2022-08-14T03:29:20;25.10;63.00
35603;DHT22;21725;50.836;4.368;2022-08-14T03:31:46;25.10;63.00
35603;DHT22;21725;50.836;4.368;2022-08-14T03:34:16;25.10;63.10
35603;DHT22;21725;50.836;4.368;2022-08-14T03:36:43;25.00;63.00
35603;DHT22;21725;50.836;4.368;2022-08-14T03:39:10;25.00;63.10
35603;DHT22;21725;50.836;4.368;2022-08-14T03:41:36;25.00;63.10
35603;DHT22;21725;50.836;4.368;2022-08-14T03:44:08;25.00;63.20
35603;DHT22;21725;50.836;4.368;2022-08-14T03:46:36;24.90;63.30
35603;DHT22;21725;50.836;4.368;2022-08-14T03:49:04;24.90;63.40
35603;DHT22;21725;50.836;4.368;2022-08-14T03:51:32;24.80;63.50
35603;DHT22;21725;50.836;4.368;2022-08-14T03:53:59;24.80;63.50
35603;DHT22;21725;50.836;4.368;2022-08-14T03:56:30;24.80;63.60
35603;DHT22;21725;50.836;4.368;2022-08-14T03:59:00;24.70;63.60
35603;DHT22;21725;50.836;4.368;2022-08-14T04:01:37;24.70;63.60
35603;DHT22;21725;50.836;4.368;2022-08-14T04:04:04;24.80;63.30
35603;DHT22;21725;50.836;4.368;2022-08-14T04:29:57;22.50;67.40
35603;DHT22;21725;50.836;4.368;2022-08-14T04:32:24;22.40;69.80
35603;DHT22;21725;50.836;4.368;2022-08-14T04:34:53;22.20;69.60
35603;DHT22;21725;50.836;4.368;2022-08-14T04:37:21;22.60;69.20
35603;DHT22;21725;50.836;4.368;2022-08-14T04:40:07;23.00;68.60
35603;DHT22;21725;50.836;4.368;2022-08-14T04:42:51;23.40;67.70
35603;DHT22;21725;50.836;4.368;2022-08-14T04:45:36;23.60;67.10
35603;DHT22;21725;50.836;4.368;2022-08-14T04:48:11;23.90;66.70
35603;DHT22;21725;50.836;4.368;2022-08-14T04:50:48;24.00;66.30
35603;DHT22;21725;50.836;4.368;2022-08-14T04:53:17;24.20;66.10
35603;DHT22;21725;50.836;4.368;2022-08-14T04:55:45;24.30;66.00
35603;DHT22;21725;50.836;4.368;2022-08-14T04:58:15;24.40;65.70
35603;DHT22;21725;50.836;4.368;2022-08-14T05:00:43;24.40;65.40
35603;DHT22;21725;50.836;4.368;2022-08-14T05:03:09;24.50;65.20
35603;DHT22;21725;50.836;4.368;2022-08-14T05:05:39;24.50;65.20
35603;DHT22;21725;50.836;4.368;2022-08-14T05:08:11;24.50;64.80
35603;DHT22;21725;50.836;4.368;2022-08-14T05:10:46;24.60;64.80
35603;DHT22;21725;50.836;4.368;2022-08-14T05:13:16;24.50;64.60
35603;DHT22;21725;50.836;4.368;2022-08-14T05:15:42;24.50;64.60
35603;DHT22;21725;50.836;4.368;2022-08-14T05:18:15;24.50;64.50
35603;DHT22;21725;50.836;4.368;2022-08-14T05:20:43;24.60;64.40
35603;DHT22;21725;50.836;4.368;2022-08-14T05:23:17;24.60;64.20
35603;DHT22;21725;50.836;4.368;2022-08-14T05:25:50;24.60;64.20
35603;DHT22;21725;50.836;4.368;2022-08-14T05:28:21;24.70;63.90
35603;DHT22;21725;50.836;4.368;2022-08-14T05:30:49;24.70;64.30
35603;DHT22;21725;50.836;4.368;2022-08-14T05:33:22;24.60;64.40
35603;DHT22;21725;50.836;4.368;2022-08-14T05:35:53;24.50;64.70
35603;DHT22;21725;50.836;4.368;2022-08-14T05:38:33;24.40;64.80
35603;DHT22;21725;50.836;4.368;2022-08-14T05:41:04;24.40;64.80
35603;DHT22;21725;50.836;4.368;2022-08-14T05:43:32;24.40;64.90
35603;DHT22;21725;50.836;4.368;2022-08-14T05:45:59;24.40;65.00
35603;DHT22;21725;50.836;4.368;2022-08-14T05:48:26;24.30;65.40
35603;DHT22;21725;50.836;4.368;2022-08-14T05:50:53;24.30;65.50
35603;DHT22;21725;50.836;4.368;2022-08-14T05:53:24;24.20;65.60
35603;DHT22;21725;50.836;4.368;2022-08-14T05:55:51;24.30;65.80
35603;DHT22;21725;50.836;4.368;2022-08-14T05:58:18;24.40;65.70
35603;DHT22;21725;50.836;4.368;2022-08-14T06:00:45;24.60;65.10
35603;DHT22;21725;50.836;4.368;2022-08-14T06:03:13;24.80;65.00
35603;DHT22;21725;50.836;4.368;2022-08-14T06:05:41;24.90;64.50
35603;DHT22;21725;50.836;4.368;2022-08-14T06:08:21;25.10;64.80
35603;DHT22;21725;50.836;4.368;2022-08-14T06:10:48;25.20;64.30
35603;DHT22;21725;50.836;4.368;2022-08-14T06:13:17;25.20;64.10
35603;DHT22;21725;50.836;4.368;2022-08-14T06:15:49;25.30;64.20
35603;DHT22;21725;50.836;4.368;2022-08-14T06:18:17;25.40;64.00
35603;DHT22;21725;50.836;4.368;2022-08-14T06:20:43;25.40;63.50
35603;DHT22;21725;50.836;4.368;2022-08-14T06:23:09;25.60;63.40
35603;DHT22;21725;50.836;4.368;2022-08-14T06:25:37;25.60;63.30
35603;DHT22;21725;50.836;4.368;2022-08-14T06:28:03;25.80;62.70
35603;DHT22;21725;50.836;4.368;2022-08-14T06:30:32;25.90;62.20
35603;DHT22;21725;50.836;4.368;2022-08-14T06:32:58;26.10;62.10
35603;DHT22;21725;50.836;4.368;2022-08-14T06:35:24;26.10;61.80
35603;DHT22;21725;50.836;4.368;2022-08-14T06:37:54;26.20;61.80
35603;DHT22;21725;50.836;4.368;2022-08-14T06:40:23;26.40;61.40
35603;DHT22;21725;50.836;4.368;2022-08-14T06:42:53;27.10;60.50
35603;DHT22;21725;50.836;4.368;2022-08-14T06:45:34;28.00;59.20
35603;DHT22;21725;50.836;4.368;2022-08-14T06:48:03;28.70;58.10
35603;DHT22;21725;50.836;4.368;2022-08-14T06:50:38;29.40;57.40
35603;DHT22;21725;50.836;4.368;2022-08-14T06:53:07;30.10;57.00
35603;DHT22;21725;50.836;4.368;2022-08-14T06:55:33;30.80;56.10
35603;DHT22;21725;50.836;4.368;2022-08-14T06:57:58;31.20;55.50
35603;DHT22;21725;50.836;4.368;2022-08-14T07:00:27;31.30;55.30
35603;DHT22;21725;50.836;4.368;2022-08-14T07:02:53;31.70;55.00
35603;DHT22;21725;50.836;4.368;2022-08-14T07:05:38;32.00;54.80
35603;DHT22;21725;50.836;4.368;2022-08-14T07:08:22;32.40;54.40
35603;DHT22;21725;50.836;4.368;2022-08-14T07:10:54;32.70;54.00
35603;DHT22;21725;50.836;4.368;2022-08-14T07:13:20;32.70;54.10
35603;DHT22;21725;50.836;4.368;2022-08-14T07:15:48;32.80;53.70
35603;DHT22;21725;50.836;4.368;2022-08-14T07:18:19;32.70;53.90
35603;DHT22;21725;50.836;4.368;2022-08-14T07:20:46;32.70;54.00
35603;DHT22;21725;50.836;4.368;2022-08-14T07:23:11;32.60;54.00
35603;DHT22;21725;50.836;4.368;2022-08-14T07:25:39;32.90;53.70
35603;DHT22;21725;50.836;4.368;2022-08-14T07:28:25;33.20;53.50
35603;DHT22;21725;50.836;4.368;2022-08-14T07:30:54;33.70;53.40
35603;DHT22;21725;50.836;4.368;2022-08-14T07:33:23;34.30;52.80
35603;DHT22;21725;50.836;4.368;2022-08-14T07:35:50;34.40;52.80
35603;DHT22;21725;50.836;4.368;2022-08-14T07:38:20;34.50;52.50
35603;DHT22;21725;50.836;4.368;2022-08-14T07:40:46;34.50;52.50
35603;DHT22;21725;50.836;4.368;2022-08-14T07:46:37;34.60;52.40
35603;DHT22;21725;50.836;4.368;2022-08-14T07:52:25;35.50;51.80
35603;DHT22;21725;50.836;4.368;2022-08-14T07:54:57;35.90;51.00
35603;DHT22;21725;50.836;4.368;2022-08-14T07:57:24;36.00;50.80
35603;DHT22;21725;50.836;4.368;2022-08-14T08:02:45;35.30;51.40
35603;DHT22;21725;50.836;4.368;2022-08-14T08:05:12;35.00;51.50
35603;DHT22;21725;50.836;4.368;2022-08-14T08:13:57;34.30;52.00
35603;DHT22;21725;50.836;4.368;2022-08-14T08:16:30;33.80;52.20
35603;DHT22;21725;50.836;4.368;2022-08-14T08:18:55;33.50;52.70
35603;DHT22;21725;50.836;4.368;2022-08-14T08:21:21;33.20;52.90
35603;DHT22;21725;50.836;4.368;2022-08-14T08:23:47;33.00;53.20
35603;DHT22;21725;50.836;4.368;2022-08-14T08:26:13;32.80;53.40
35603;DHT22;21725;50.836;4.368;2022-08-14T08:38:21;32.20;53.90
35603;DHT22;21725;50.836;4.368;2022-08-14T08:40:52;32.10;53.90
35603;DHT22;21725;50.836;4.368;2022-08-14T08:43:21;32.10;53.70
35603;DHT22;21725;50.836;4.368;2022-08-14T08:46:02;32.10;54.10
35603;DHT22;21725;50.836;4.368;2022-08-14T08:48:41;32.20;54.10
35603;DHT22;21725;50.836;4.368;2022-08-14T08:51:08;32.10;54.10
35603;DHT22;21725;50.836;4.368;2022-08-14T08:53:35;32.10;53.50
35603;DHT22;21725;50.836;4.368;2022-08-14T08:56:02;32.10;53.70
35603;DHT22;21725;50.836;4.368;2022-08-14T08:58:30;32.00;54.40
35603;DHT22;21725;50.836;4.368;2022-08-14T09:00:57;31.90;54.60
35603;DHT22;21725;50.836;4.368;2022-08-14T09:03:25;31.80;54.60
35603;DHT22;21725;50.836;4.368;2022-08-14T09:05:56;31.90;54.70
35603;DHT22;21725;50.836;4.368;2022-08-14T09:08:25;32.10;54.50
35603;DHT22;21725;50.836;4.368;2022-08-14T09:10:51;32.10;54.30
35603;DHT22;21725;50.836;4.368;2022-08-14T09:13:18;32.00;54.50
35603;DHT22;21725;50.836;4.368;2022-08-14T09:15:54;31.90;54.30
35603;DHT22;21725;50.836;4.368;2022-08-14T09:18:23;32.00;54.20
35603;DHT22;21725;50.836;4.368;2022-08-14T09:20:56;32.00;54.10
35603;DHT22;21725;50.836;4.368;2022-08-14T09:23:35;32.30;53.90
35603;DHT22;21725;50.836;4.368;2022-08-14T09:29:25;31.90;54.60
35603;DHT22;21725;50.836;4.368;2022-08-14T09:31:57;32.10;54.20
35603;DHT22;21725;50.836;4.368;2022-08-14T09:34:42;32.20;54.10
35603;DHT22;21725;50.836;4.368;2022-08-14T09:37:24;32.10;53.70
35603;DHT22;21725;50.836;4.368;2022-08-14T09:42:49;32.10;54.10
35603;DHT22;21725;50.836;4.368;2022-08-14T09:45:18;32.10;54.10
35603;DHT22;21725;50.836;4.368;2022-08-14T09:47:51;32.00;54.90
35603;DHT22;21725;50.836;4.368;2022-08-14T09:52:51;31.90;55.20
35603;DHT22;21725;50.836;4.368;2022-08-14T09:55:19;32.10;55.50
35603;DHT22;21725;50.836;4.368;2022-08-14T09:57:48;32.10;56.00
35603;DHT22;21725;50.836;4.368;2022-08-14T10:00:15;32.20;55.70
35603;DHT22;21725;50.836;4.368;2022-08-14T10:02:56;32.30;56.10
35603;DHT22;21725;50.836;4.368;2022-08-14T10:38:36;30.60;56.50
35603;DHT22;21725;50.836;4.368;2022-08-14T10:41:12;32.00;53.80
35603;DHT22;21725;50.836;4.368;2022-08-14T10:43:43;32.30;52.70
35603;DHT22;21725;50.836;4.368;2022-08-14T10:46:38;32.40;52.30
35603;DHT22;21725;50.836;4.368;2022-08-14T10:49:05;32.80;51.60
35603;DHT22;21725;50.836;4.368;2022-08-14T10:51:36;32.90;51.50
35603;DHT22;21725;50.836;4.368;2022-08-14T10:54:17;33.10;51.80
35603;DHT22;21725;50.836;4.368;2022-08-14T10:57:32;33.30;51.90
35603;DHT22;21725;50.836;4.368;2022-08-14T11:00:15;33.30;51.40
35603;DHT22;21725;50.836;4.368;2022-08-14T11:02:41;33.30;51.60
35603;DHT22;21725;50.836;4.368;2022-08-14T11:05:16;33.20;51.60
35603;DHT22;21725;50.836;4.368;2022-08-14T11:10:24;33.50;50.10
35603;DHT22;21725;50.836;4.368;2022-08-14T11:12:56;33.30;50.30
35603;DHT22;21725;50.836;4.368;2022-08-14T11:15:25;33.10;50.00
35603;DHT22;21725;50.836;4.368;2022-08-14T11:17:52;33.00;50.10
35603;DHT22;21725;50.836;4.368;2022-08-14T11:20:22;33.00;50.10
35603;DHT22;21725;50.836;4.368;2022-08-14T11:22:53;32.90;50.00
35603;DHT22;21725;50.836;4.368;2022-08-14T11:25:22;33.00;50.20
35603;DHT22;21725;50.836;4.368;2022-08-14T11:27:49;33.10;50.20
35603;DHT22;21725;50.836;4.368;2022-08-14T11:30:17;33.20;50.70
35603;DHT22;21725;50.836;4.368;2022-08-14T11:32:48;33.00;51.00
35603;DHT22;21725;50.836;4.368;2022-08-14T11:35:20;33.10;51.10
35603;DHT22;21725;50.836;4.368;2022-08-14T11:38:01;33.50;50.60
35603;DHT22;21725;50.836;4.368;2022-08-14T11:40:36;34.00;49.40
35603;DHT22;21725;50.836;4.368;2022-08-14T11:43:05;34.00;49.20
35603;DHT22;21725;50.836;4.368;2022-08-14T11:45:54;33.80;49.30
35603;DHT22;21725;50.836;4.368;2022-08-14T11:48:26;33.80;49.20
35603;DHT22;21725;50.836;4.368;2022-08-14T11:50:58;33.90;49.40
35603;DHT22;21725;50.836;4.368;2022-08-14T11:56:36;34.10;49.50
35603;DHT22;21725;50.836;4.368;2022-08-14T11:59:13;34.00;49.40
35603;DHT22;21725;50.836;4.368;2022-08-14T12:01:41;33.90;49.40
35603;DHT22;21725;50.836;4.368;2022-08-14T12:04:18;33.90;49.20
35603;DHT22;21725;50.836;4.368;2022-08-14T12:06:54;34.00;48.90
35603;DHT22;21725;50.836;4.368;2022-08-14T12:09:33;34.00;49.70
35603;DHT22;21725;50.836;4.368;2022-08-14T12:12:01;34.00;48.90
35603;DHT22;21725;50.836;4.368;2022-08-14T12:18:13;33.90;48.50
35603;DHT22;21725;50.836;4.368;2022-08-14T12:21:21;33.60;48.60
35603;DHT22;21725;50.836;4.368;2022-08-14T12:24:05;33.90;48.10
35603;DHT22;21725;50.836;4.368;2022-08-14T12:26:40;34.00;48.30
35603;DHT22;21725;50.836;4.368;2022-08-14T12:29:27;34.00;48.30
35603;DHT22;21725;50.836;4.368;2022-08-14T12:32:00;34.20;47.70
35603;DHT22;21725;50.836;4.368;2022-08-14T12:34:37;34.10;47.60
35603;DHT22;21725;50.836;4.368;2022-08-14T12:37:06;33.90;48.00
35603;DHT22;21725;50.836;4.368;2022-08-14T12:39:48;34.10;47.30
35603;DHT22;21725;50.836;4.368;2022-08-14T12:42:14;34.50;46.90
35603;DHT22;21725;50.836;4.368;2022-08-14T12:44:59;34.50;47.00
35603;DHT22;21725;50.836;4.368;2022-08-14T12:47:33;34.60;46.60
35603;DHT22;21725;50.836;4.368;2022-08-14T12:49:59;34.40;46.40
35603;DHT22;21725;50.836;4.368;2022-08-14T12:52:45;34.20;46.70
35603;DHT22;21725;50.836;4.368;2022-08-14T12:55:16;34.20;46.90
35603;DHT22;21725;50.836;4.368;2022-08-14T12:57:45;34.40;47.00
35603;DHT22;21725;50.836;4.368;2022-08-14T13:00:52;34.20;46.90
35603;DHT22;21725;50.836;4.368;2022-08-14T13:03:42;34.30;47.00
35603;DHT22;21725;50.836;4.368;2022-08-14T13:06:09;34.20;47.00
35603;DHT22;21725;50.836;4.368;2022-08-14T13:08:44;34.50;47.30
35603;DHT22;21725;50.836;4.368;2022-08-14T13:11:13;34.40;47.80
35603;DHT22;21725;50.836;4.368;2022-08-14T13:13:57;34.40;47.90
35603;DHT22;21725;50.836;4.368;2022-08-14T13:16:24;34.40;48.00
35603;DHT22;21725;50.836;4.368;2022-08-14T13:18:56;34.30;48.10
35603;DHT22;21725;50.836;4.368;2022-08-14T13:21:39;34.30;48.20
35603;DHT22;21725;50.836;4.368;2022-08-14T13:24:06;34.40;48.30
35603;DHT22;21725;50.836;4.368;2022-08-14T13:26:47;34.50;48.10
35603;DHT22;21725;50.836;4.368;2022-08-14T13:29:28;34.50;48.30
35603;DHT22;21725;50.836;4.368;2022-08-14T13:31:58;34.70;48.10
35603;DHT22;21725;50.836;4.368;2022-08-14T13:34:39;34.60;48.10
35603;DHT22;21725;50.836;4.368;2022-08-14T13:37:08;34.60;48.00
35603;DHT22;21725;50.836;4.368;2022-08-14T13:39:48;34.30;48.30
35603;DHT22;21725;50.836;4.368;2022-08-14T13:42:31;34.10;48.40
35603;DHT22;21725;50.836;4.368;2022-08-14T13:45:03;34.20;48.70
35603;DHT22;21725;50.836;4.368;2022-08-14T13:47:55;34.40;48.50
35603;DHT22;21725;50.836;4.368;2022-08-14T13:50:21;34.80;48.30
35603;DHT22;21725;50.836;4.368;2022-08-14T13:52:50;35.10;47.80
35603;DHT22;21725;50.836;4.368;2022-08-14T13:55:21;34.90;48.30
35603;DHT22;21725;50.836;4.368;2022-08-14T13:57:50;34.60;48.10
35603;DHT22;21725;50.836;4.368;2022-08-14T14:00:26;34.60;47.80
35603;DHT22;21725;50.836;4.368;2022-08-14T14:02:53;34.80;48.00
35603;DHT22;21725;50.836;4.368;2022-08-14T14:05:21;34.70;47.80
35603;DHT22;21725;50.836;4.368;2022-08-14T14:07:52;34.80;47.80
35603;DHT22;21725;50.836;4.368;2022-08-14T14:10:21;34.80;48.00
35603;DHT22;21725;50.836;4.368;2022-08-14T14:12:49;34.80;47.80
35603;DHT22;21725;50.836;4.368;2022-08-14T14:15:22;35.20;47.60
35603;DHT22;21725;50.836;4.368;2022-08-14T14:17:58;35.30;46.70
35603;DHT22;21725;50.836;4.368;2022-08-14T14:20:30;35.10;46.70
35603;DHT22;21725;50.836;4.368;2022-08-14T14:23:12;34.80;47.70
35603;DHT22;21725;50.836;4.368;2022-08-14T14:28:53;35.10;47.10
35603;DHT22;21725;50.836;4.368;2022-08-14T14:31:23;35.00;46.70
35603;DHT22;21725;50.836;4.368;2022-08-14T14:33:51;35.00;46.80
35603;DHT22;21725;50.836;4.368;2022-08-14T14:36:21;34.90;47.30
35603;DHT22;21725;50.836;4.368;2022-08-14T14:39:00;34.80;46.90
35603;DHT22;21725;50.836;4.368;2022-08-14T14:41:30;34.80;46.90
35603;DHT22;21725;50.836;4.368;2022-08-14T14:43:58;35.00;46.70
35603;DHT22;21725;50.836;4.368;2022-08-14T14:46:46;35.10;46.70
35603;DHT22;21725;50.836;4.368;2022-08-14T14:49:47;35.20;47.20
35603;DHT22;21725;50.836;4.368;2022-08-14T14:52:13;35.20;47.20
35603;DHT22;21725;50.836;4.368;2022-08-14T14:54:40;35.00;47.50
35603;DHT22;21725;50.836;4.368;2022-08-14T14:57:17;35.00;47.90
35603;DHT22;21725;50.836;4.368;2022-08-14T14:59:45;35.00;47.60
35603;DHT22;21725;50.836;4.368;2022-08-14T15:02:59;35.30;47.50
35603;DHT22;21725;50.836;4.368;2022-08-14T15:09:15;34.80;47.80
35603;DHT22;21725;50.836;4.368;2022-08-14T15:11:56;34.80;48.00
35603;DHT22;21725;50.836;4.368;2022-08-14T15:14:22;34.50;48.50
35603;DHT22;21725;50.836;4.368;2022-08-14T15:16:48;34.60;48.30
35603;DHT22;21725;50.836;4.368;2022-08-14T15:19:14;34.70;48.20
35603;DHT22;21725;50.836;4.368;2022-08-14T15:21:40;34.70;47.80
35603;DHT22;21725;50.836;4.368;2022-08-14T15:24:06;34.70;47.90
35603;DHT22;21725;50.836;4.368;2022-08-14T15:26:32;34.60;47.90
35603;DHT22;21725;50.836;4.368;2022-08-14T15:29:04;34.40;47.70
35603;DHT22;21725;50.836;4.368;2022-08-14T15:34:43;34.30;47.70
35603;DHT22;21725;50.836;4.368;2022-08-14T15:37:42;34.30;48.10
35603;DHT22;21725;50.836;4.368;2022-08-14T15:40:07;34.20;47.80
35603;DHT22;21725;50.836;4.368;2022-08-14T15:42:37;34.30;47.50
35603;DHT22;21725;50.836;4.368;2022-08-14T15:45:05;34.50;47.30
35603;DHT22;21725;50.836;4.368;2022-08-14T15:47:33;34.40;47.30
35603;DHT22;21725;50.836;4.368;2022-08-14T15:50:00;34.50;47.50
35603;DHT22;21725;50.836;4.368;2022-08-14T15:52:29;34.40;47.20
35603;DHT22;21725;50.836;4.368;2022-08-14T15:54:59;34.30;47.60
35603;DHT22;21725;50.836;4.368;2022-08-14T15:57:25;34.30;47.20
35603;DHT22;21725;50.836;4.368;2022-08-14T15:59:52;34.30;46.90
35603;DHT22;21725;50.836;4.368;2022-08-14T16:02:36;34.30;47.10
35603;DHT22;21725;50.836;4.368;2022-08-14T16:27:48;31.80;50.20
35603;DHT22;21725;50.836;4.368;2022-08-14T16:30:15;31.40;51.40
35603;DHT22;21725;50.836;4.368;2022-08-14T16:32:41;31.70;52.00
35603;DHT22;21725;50.836;4.368;2022-08-14T16:35:13;32.10;51.70
35603;DHT22;21725;50.836;4.368;2022-08-14T16:37:42;32.40;51.60
35603;DHT22;21725;50.836;4.368;2022-08-14T16:40:12;32.70;51.10
35603;DHT22;21725;50.836;4.368;2022-08-14T16:42:40;33.00;51.00
35603;DHT22;21725;50.836;4.368;2022-08-14T16:48:09;33.30;50.70
35603;DHT22;21725;50.836;4.368;2022-08-14T16:50:37;33.30;50.80
35603;DHT22;21725;50.836;4.368;2022-08-14T16:53:03;33.40;50.70
35603;DHT22;21725;50.836;4.368;2022-08-14T16:55:41;33.40;50.50
35603;DHT22;21725;50.836;4.368;2022-08-14T16:58:35;33.30;50.60
35603;DHT22;21725;50.836;4.368;2022-08-14T17:01:16;33.10;51.10
35603;DHT22;21725;50.836;4.368;2022-08-14T17:06:53;33.40;51.00
35603;DHT22;21725;50.836;4.368;2022-08-14T17:09:33;33.40;50.90
35603;DHT22;21725;50.836;4.368;2022-08-14T17:15:01;33.20;51.20
35603;DHT22;21725;50.836;4.368;2022-08-14T17:20:41;32.90;51.50
35603;DHT22;21725;50.836;4.368;2022-08-14T17:26:49;33.10;51.30
35603;DHT22;21725;50.836;4.368;2022-08-14T17:29:40;32.90;51.60
35603;DHT22;21725;50.836;4.368;2022-08-14T17:32:17;32.90;51.60
35603;DHT22;21725;50.836;4.368;2022-08-14T17:34:49;33.00;51.40
35603;DHT22;21725;50.836;4.368;2022-08-14T17:37:45;32.80;51.60
35603;DHT22;21725;50.836;4.368;2022-08-14T17:40:18;32.70;51.80
35603;DHT22;21725;50.836;4.368;2022-08-14T17:42:52;32.50;51.90
35603;DHT22;21725;50.836;4.368;2022-08-14T17:48:04;32.70;51.90
35603;DHT22;21725;50.836;4.368;2022-08-14T17:50:43;32.50;52.10
35603;DHT22;21725;50.836;4.368;2022-08-14T17:53:16;32.50;52.10
35603;DHT22;21725;50.836;4.368;2022-08-14T17:55:45;32.40;52.30
35603;DHT22;21725;50.836;4.368;2022-08-14T17:58:16;32.40;52.40
35603;DHT22;21725;50.836;4.368;2022-08-14T18:00:44;32.30;52.40
35603;DHT22;21725;50.836;4.368;2022-08-14T18:03:13;32.30;52.40
35603;DHT22;21725;50.836;4.368;2022-08-14T18:05:43;32.30;52.50
35603;DHT22;21725;50.836;4.368;2022-08-14T18:08:25;32.30;52.60
35603;DHT22;21725;50.836;4.368;2022-08-14T18:17:13;32.30;52.90
35603;DHT22;21725;50.836;4.368;2022-08-14T18:19:39;32.30;52.70
35603;DHT22;21725;50.836;4.368;2022-08-14T18:22:11;32.20;52.70
35603;DHT22;21725;50.836;4.368;2022-08-14T18:24:38;32.20;52.80
35603;DHT22;21725;50.836;4.368;2022-08-14T18:27:13;32.10;52.90
35603;DHT22;21725;50.836;4.368;2022-08-14T18:29:59;32.10;52.80
35603;DHT22;21725;50.836;4.368;2022-08-14T18:34:58;32.10;52.60
35603;DHT22;21725;50.836;4.368;2022-08-14T18:37:36;32.00;52.70
35603;DHT22;21725;50.836;4.368;2022-08-14T18:46:16;31.90;52.90